createdAt,value
2018-12-16T00:02:15.941Z,33.43
2018-12-16T00:04:49.641Z,35.20
2018-12-16T00:07:13.566Z,32.63
2018-12-16T00:09:41.558Z,32.60
2018-12-16T00:12:09.865Z,32.80
2018-12-16T00:14:37.588Z,33.70
2018-12-16T00:17:05.454Z,34.57
2018-12-16T00:19:33.321Z,35.53
2018-12-16T00:22:01.192Z,34.60
2018-12-16T00:24:29.197Z,33.33
2018-12-16T00:27:08.742Z,32.27
2018-12-16T00:29:36.755Z,34.90
2018-12-16T00:32:04.846Z,35.67
2018-12-16T00:34:32.787Z,33.93
2018-12-16T00:37:00.675Z,33.40
2018-12-16T00:39:28.669Z,35.30
2018-12-16T00:41:56.609Z,34.03
2018-12-16T00:44:24.621Z,35.50
2018-12-16T00:46:52.640Z,35.47
2018-12-16T00:49:20.606Z,34.07
2018-12-16T00:51:48.598Z,34.50
2018-12-16T00:54:16.566Z,35.73
2018-12-16T00:56:44.553Z,34.60
2018-12-16T00:59:12.694Z,34.77
2018-12-16T01:01:40.711Z,32.70
2018-12-16T01:04:08.625Z,34.87
2018-12-16T01:06:36.616Z,35.90
2018-12-16T01:09:06.219Z,33.73
2018-12-16T01:11:34.225Z,35.50
2018-12-16T01:14:02.162Z,36.27
2018-12-16T01:16:30.002Z,33.00
2018-12-16T01:18:57.824Z,33.20
2018-12-16T01:21:26.100Z,34.33
2018-12-16T01:23:54.068Z,36.13
2018-12-16T01:26:22.038Z,33.60
2018-12-16T01:28:50.109Z,34.50
2018-12-16T01:31:18.149Z,34.20
2018-12-16T01:33:46.236Z,34.87
2018-12-16T01:36:14.177Z,33.77
2018-12-16T01:38:42.193Z,32.77
2018-12-16T01:41:09.934Z,33.70
2018-12-16T01:43:38.099Z,33.70
2018-12-16T01:46:06.039Z,34.10
2018-12-16T01:48:34.064Z,34.30
2018-12-16T01:51:01.796Z,32.47
2018-12-16T01:53:29.712Z,33.40
2018-12-16T01:55:57.577Z,31.57
2018-12-16T01:58:25.442Z,32.60
2018-12-16T02:00:53.307Z,33.80
2018-12-16T02:03:21.249Z,32.67
2018-12-16T02:05:49.189Z,33.27
2018-12-16T02:08:17.382Z,32.03
2018-12-16T02:10:45.477Z,32.30
2018-12-16T02:13:13.463Z,32.70
2018-12-16T02:15:41.403Z,32.60
2018-12-16T02:18:09.342Z,31.50
2018-12-16T02:20:37.210Z,29.30
2018-12-16T02:23:05.075Z,29.87
2018-12-16T02:25:33.064Z,31.90
2018-12-16T02:28:01.033Z,31.10
2018-12-16T02:30:29.433Z,31.50
2018-12-16T02:32:57.436Z,29.67
2018-12-16T02:35:25.351Z,31.53
2018-12-16T02:37:53.444Z,31.10
2018-12-16T02:40:21.487Z,30.23
2018-12-16T02:42:49.498Z,29.63
2018-12-16T02:45:17.417Z,27.67
2018-12-16T02:47:47.957Z,28.20
2018-12-16T02:50:16.050Z,28.53
2018-12-16T02:52:43.957Z,31.27
2018-12-16T02:55:11.835Z,28.83
2018-12-16T02:57:39.771Z,28.33
2018-12-16T03:00:08.482Z,28.60
2018-12-16T03:02:36.611Z,28.40
2018-12-16T03:05:05.095Z,29.60
2018-12-16T03:07:33.079Z,29.17
2018-12-16T03:10:01.020Z,27.17
2018-12-16T03:12:28.972Z,27.80
2018-12-16T03:14:56.828Z,26.10
2018-12-16T03:17:24.694Z,27.77
2018-12-16T03:19:52.559Z,27.70
2018-12-16T03:22:20.428Z,27.50
2018-12-16T03:24:48.290Z,27.23
2018-12-16T03:27:16.295Z,25.67
2018-12-16T03:29:44.419Z,24.90
2018-12-16T03:32:12.412Z,27.47
2018-12-16T03:34:40.351Z,25.07
2018-12-16T03:37:08.292Z,23.10
2018-12-16T03:39:36.235Z,24.20
2018-12-16T03:42:04.175Z,23.40
2018-12-16T03:44:32.039Z,23.17
2018-12-16T03:47:00.255Z,24.37
2018-12-16T03:49:28.329Z,22.17
2018-12-16T03:51:56.386Z,22.13
2018-12-16T03:54:24.452Z,23.43
2018-12-16T03:56:52.392Z,23.20
2018-12-16T03:59:20.582Z,20.33
2018-12-16T04:02:05.248Z,21.77
2018-12-16T04:04:33.215Z,21.60
2018-12-16T04:07:01.383Z,19.00
2018-12-16T04:09:29.469Z,19.90
2018-12-16T04:11:57.557Z,19.67
2018-12-16T04:14:25.600Z,20.07
2018-12-16T04:16:53.543Z,19.03
2018-12-16T04:19:21.411Z,18.40
2018-12-16T04:21:49.422Z,16.07
2018-12-16T04:24:17.368Z,17.43
2018-12-16T04:26:45.555Z,16.53
2018-12-16T04:29:13.647Z,15.33
2018-12-16T04:31:41.685Z,15.57
2018-12-16T04:34:09.649Z,15.83
2018-12-16T04:36:37.522Z,16.87
2018-12-16T04:39:06.545Z,16.43
2018-12-16T04:41:34.298Z,13.07
2018-12-16T04:44:02.138Z,14.83
2018-12-16T04:46:30.002Z,14.17
2018-12-16T04:48:57.993Z,14.57
2018-12-16T04:51:25.935Z,15.20
2018-12-16T04:53:53.846Z,15.60
2018-12-16T04:56:21.667Z,15.60
2018-12-16T04:58:52.754Z,16.37
2018-12-16T05:01:20.796Z,16.13
2018-12-16T05:03:48.901Z,17.10
2018-12-16T05:06:16.902Z,17.57
2018-12-16T05:08:44.943Z,18.20
2018-12-16T05:11:12.884Z,19.33
2018-12-16T05:13:40.976Z,21.13
2018-12-16T05:16:09.016Z,21.60
2018-12-16T05:18:36.985Z,19.20
2018-12-16T05:21:05.190Z,21.87
2018-12-16T05:23:33.237Z,22.13
2018-12-16T05:26:01.128Z,21.50
2018-12-16T05:28:29.168Z,22.37
2018-12-16T05:30:57.109Z,23.57
2018-12-16T05:33:24.976Z,21.67
2018-12-16T05:35:52.916Z,21.73
2018-12-16T05:38:20.856Z,21.90
2018-12-16T05:40:48.941Z,21.60
2018-12-16T05:43:16.787Z,22.50
2018-12-16T05:45:44.727Z,23.23
2018-12-16T05:48:12.744Z,22.23
2018-12-16T05:50:40.820Z,23.60
2018-12-16T05:53:08.783Z,23.37
2018-12-16T05:55:36.665Z,23.43
2018-12-16T05:58:04.808Z,23.20
2018-12-16T06:00:32.747Z,24.17
2018-12-16T06:03:00.737Z,24.07
2018-12-16T06:05:28.834Z,25.57
2018-12-16T06:07:56.792Z,24.37
2018-12-16T06:10:24.684Z,25.13
2018-12-16T06:12:52.699Z,25.80
2018-12-16T06:15:20.913Z,24.63
2018-12-16T06:17:48.962Z,24.93
2018-12-16T06:20:17.056Z,26.03
2018-12-16T06:22:44.986Z,25.30
2018-12-16T06:25:12.982Z,26.70
2018-12-16T06:27:40.917Z,26.97
2018-12-16T06:30:09.345Z,26.57
2018-12-16T06:32:37.412Z,24.70
2018-12-16T06:35:05.663Z,28.43
2018-12-16T06:37:33.759Z,27.50
2018-12-16T06:40:01.795Z,27.80
2018-12-16T06:42:29.903Z,26.40
2018-12-16T06:44:57.827Z,25.70
2018-12-16T06:47:26.044Z,24.93
2018-12-16T06:49:53.958Z,24.13
2018-12-16T06:52:21.823Z,23.53
2018-12-16T06:54:49.913Z,23.10
2018-12-16T06:57:17.904Z,21.73
2018-12-16T06:59:45.993Z,23.57
2018-12-16T07:02:13.732Z,22.40
2018-12-16T07:04:41.947Z,22.80
2018-12-16T07:07:09.892Z,22.67
2018-12-16T07:09:38.074Z,17.90
2018-12-16T07:12:05.998Z,22.73
2018-12-16T07:14:33.989Z,20.33
2018-12-16T07:17:02.079Z,20.47
2018-12-16T07:19:30.118Z,22.20
2018-12-16T07:21:58.221Z,23.07
2018-12-16T07:24:26.294Z,20.33
2018-12-16T07:26:54.260Z,20.43
2018-12-16T07:29:22.301Z,20.57
2018-12-16T07:31:50.336Z,21.97
2018-12-16T07:34:18.212Z,21.10
2018-12-16T07:36:46.239Z,21.77
2018-12-16T07:39:14.168Z,21.70
2018-12-16T07:41:42.034Z,18.03
2018-12-16T07:44:10.145Z,19.60
2018-12-16T07:46:38.125Z,20.20
2018-12-16T07:49:07.829Z,20.33
2018-12-16T07:51:35.872Z,21.30
2018-12-16T07:54:04.377Z,22.50
2018-12-16T07:56:32.314Z,19.80
2018-12-16T07:59:00.167Z,20.67
2018-12-16T08:01:28.201Z,21.17
2018-12-16T08:03:56.239Z,17.10
2018-12-16T08:06:24.335Z,17.47
2018-12-16T08:08:52.254Z,19.40
2018-12-16T08:11:20.245Z,19.30
2018-12-16T08:13:48.331Z,16.67
2018-12-16T08:16:16.402Z,16.90
2018-12-16T08:18:44.341Z,15.40
2018-12-16T08:21:12.308Z,16.43
2018-12-16T08:23:41.199Z,16.60
2018-12-16T08:26:09.438Z,15.70
2018-12-16T08:28:37.555Z,13.20
2018-12-16T08:31:05.794Z,17.00
2018-12-16T08:33:33.785Z,15.70
2018-12-16T08:36:01.652Z,14.97
2018-12-16T08:38:29.516Z,14.13
2018-12-16T08:40:57.382Z,14.83
2018-12-16T08:43:25.747Z,14.67
2018-12-16T08:45:53.716Z,16.00
2018-12-16T08:48:21.606Z,14.20
2018-12-16T08:50:49.574Z,15.73
2018-12-16T08:53:18.261Z,16.03
2018-12-16T08:55:46.232Z,15.47
2018-12-16T08:58:14.291Z,15.90
2018-12-16T09:00:42.158Z,16.73
2018-12-16T09:03:10.850Z,15.93
2018-12-16T09:05:38.713Z,14.87
2018-12-16T09:08:06.703Z,16.77
2018-12-16T09:10:34.791Z,15.90
2018-12-16T09:13:02.859Z,15.63
2018-12-16T09:15:30.775Z,16.30
2018-12-16T09:17:58.640Z,15.10
2018-12-16T09:20:26.632Z,17.33
2018-12-16T09:22:54.737Z,16.40
2018-12-16T09:25:22.591Z,15.20
2018-12-16T09:27:50.529Z,16.53
2018-12-16T09:30:18.393Z,14.93
2018-12-16T09:32:46.407Z,14.70
2018-12-16T09:35:14.450Z,15.33
2018-12-16T09:37:42.415Z,14.27
2018-12-16T09:40:10.606Z,12.97
2018-12-16T09:42:38.547Z,14.00
2018-12-16T09:45:06.636Z,14.03
2018-12-16T09:47:35.052Z,14.23
2018-12-16T09:50:03.071Z,14.37
2018-12-16T09:52:31.034Z,13.20
2018-12-16T09:54:59.024Z,13.70
2018-12-16T09:57:26.964Z,15.47
2018-12-16T09:59:54.956Z,14.63
2018-12-16T10:02:23.645Z,13.10
2018-12-16T10:04:51.743Z,13.27
2018-12-16T10:07:19.703Z,13.70
2018-12-16T10:09:47.869Z,12.90
2018-12-16T10:12:15.807Z,13.83
2018-12-16T10:14:44.149Z,13.60
2018-12-16T10:17:12.063Z,12.80
2018-12-16T10:19:40.032Z,12.17
2018-12-16T10:22:08.021Z,12.93
2018-12-16T10:24:35.961Z,12.70
2018-12-16T10:27:03.975Z,12.80
2018-12-16T10:29:32.046Z,12.70
2018-12-16T10:32:00.007Z,12.60
2018-12-16T10:34:27.951Z,13.03
2018-12-16T10:36:56.113Z,12.13
2018-12-16T10:39:23.980Z,13.50
2018-12-16T10:41:51.969Z,11.70
2018-12-16T10:44:19.910Z,12.47
2018-12-16T10:46:47.930Z,12.60
2018-12-16T10:49:15.991Z,12.30
2018-12-16T10:51:44.056Z,11.13
2018-12-16T10:54:11.996Z,11.70
2018-12-16T10:56:39.862Z,11.80
2018-12-16T10:59:07.728Z,12.20
2018-12-16T11:01:35.743Z,11.77
2018-12-16T11:04:03.659Z,12.40
2018-12-16T11:06:31.687Z,9.80
2018-12-16T11:09:00.016Z,11.90
2018-12-16T11:11:27.881Z,12.50
2018-12-16T11:13:55.895Z,12.93
2018-12-16T11:16:23.612Z,11.60
2018-12-16T11:18:51.503Z,11.10
2018-12-16T11:21:19.469Z,12.97
2018-12-16T11:23:53.520Z,12.27
2018-12-16T11:26:17.476Z,11.80
2018-12-16T11:28:45.760Z,12.00
2018-12-16T11:31:13.828Z,12.10
2018-12-16T11:33:41.796Z,13.43
2018-12-16T11:36:09.837Z,10.10
2018-12-16T11:38:37.803Z,13.00
2018-12-16T11:41:05.706Z,14.43
2018-12-16T11:43:33.859Z,13.10
2018-12-16T11:46:01.947Z,14.40
2018-12-16T11:48:29.989Z,13.03
2018-12-16T11:50:57.931Z,13.67
2018-12-16T11:53:25.799Z,14.20
2018-12-16T11:55:53.811Z,13.30
2018-12-16T11:58:21.755Z,13.50
2018-12-16T12:00:49.620Z,15.03
2018-12-16T12:03:17.484Z,13.77
2018-12-16T12:05:45.495Z,14.00
2018-12-16T12:08:13.564Z,14.77
2018-12-16T12:10:41.556Z,14.37
2018-12-16T12:13:09.707Z,13.17
2018-12-16T12:15:37.476Z,11.80
2018-12-16T12:18:05.602Z,13.50
2018-12-16T12:20:34.022Z,12.50
2018-12-16T12:23:02.095Z,9.53
2018-12-16T12:25:31.390Z,10.40
2018-12-16T12:28:01.042Z,11.83
2018-12-16T12:30:29.176Z,11.90
2018-12-16T12:32:57.120Z,11.70
2018-12-16T12:35:25.585Z,12.50
2018-12-16T12:37:53.782Z,12.77
2018-12-16T12:40:21.717Z,11.90
2018-12-16T12:42:50.332Z,12.50
2018-12-16T12:45:18.273Z,11.63
2018-12-16T12:47:46.164Z,12.63
2018-12-16T12:50:14.004Z,15.30
2018-12-16T12:52:41.869Z,11.97
2018-12-16T12:55:09.986Z,12.33
2018-12-16T12:57:37.856Z,11.90
2018-12-16T13:00:09.913Z,12.10
2018-12-16T13:02:38.199Z,14.10
2018-12-16T13:05:06.529Z,12.73
2018-12-16T13:07:34.612Z,13.40
2018-12-16T13:10:03.029Z,12.13
2018-12-16T13:12:30.996Z,12.57
2018-12-16T13:14:58.967Z,12.67
2018-12-16T13:17:26.949Z,11.90
2018-12-16T13:19:54.891Z,11.60
2018-12-16T13:22:23.155Z,12.70
2018-12-16T13:25:02.996Z,12.80
2018-12-16T13:27:30.960Z,13.03
2018-12-16T13:29:58.927Z,12.97
2018-12-16T13:32:26.797Z,11.63
2018-12-16T13:34:54.709Z,11.97
2018-12-16T13:37:22.651Z,12.13
2018-12-16T13:39:50.735Z,13.23
2018-12-16T13:42:18.804Z,11.23
2018-12-16T13:44:46.952Z,11.93
2018-12-16T13:47:14.810Z,12.17
2018-12-16T13:49:42.683Z,12.77
2018-12-16T13:52:10.546Z,12.67
2018-12-16T13:54:38.732Z,12.50
2018-12-16T13:57:06.824Z,12.37
2018-12-16T13:59:34.813Z,13.00
2018-12-16T14:02:02.731Z,13.73
2018-12-16T14:04:30.698Z,16.33
2018-12-16T14:06:58.560Z,12.93
2018-12-16T14:09:26.428Z,11.67
2018-12-16T14:11:54.298Z,12.40
2018-12-16T14:14:22.297Z,13.00
2018-12-16T14:16:50.372Z,13.53
2018-12-16T14:19:18.441Z,12.70
2018-12-16T14:21:46.355Z,12.90
2018-12-16T14:24:14.498Z,12.50
2018-12-16T14:26:42.438Z,12.90
2018-12-16T14:29:10.626Z,14.47
2018-12-16T14:31:38.567Z,13.33
2018-12-16T14:34:06.664Z,13.10
2018-12-16T14:36:34.623Z,14.17
2018-12-16T14:39:02.705Z,13.50
2018-12-16T14:41:30.777Z,13.87
2018-12-16T14:43:58.819Z,14.27
2018-12-16T14:46:26.925Z,14.20
2018-12-16T14:48:54.990Z,14.00
2018-12-16T14:51:23.140Z,15.43
2018-12-16T14:53:51.238Z,14.77
2018-12-16T14:56:19.273Z,14.37
2018-12-16T14:58:47.376Z,15.00
2018-12-16T15:01:15.334Z,14.63
2018-12-16T15:03:44.340Z,15.03
2018-12-16T15:06:12.463Z,15.27
2018-12-16T15:08:40.524Z,15.57
2018-12-16T15:11:08.640Z,15.80
2018-12-16T15:13:36.705Z,16.20
2018-12-16T15:16:04.771Z,16.50
2018-12-16T15:18:32.714Z,16.00
2018-12-16T15:21:00.852Z,16.00
2018-12-16T15:23:29.001Z,16.57
2018-12-16T15:26:02.013Z,16.10
2018-12-16T15:28:27.201Z,16.07
2018-12-16T15:30:55.273Z,16.97
2018-12-16T15:33:23.188Z,17.07
2018-12-16T15:35:55.400Z,16.27
2018-12-16T15:38:23.561Z,16.30
2018-12-16T15:40:51.527Z,15.03
2018-12-16T15:43:19.692Z,16.37
2018-12-16T15:45:47.659Z,16.00
2018-12-16T15:48:15.574Z,15.73
2018-12-16T15:50:43.989Z,16.90
2018-12-16T15:53:11.854Z,17.80
2018-12-16T15:55:40.672Z,17.20
2018-12-16T15:58:08.871Z,16.60
2018-12-16T16:00:37.302Z,17.97
2018-12-16T16:03:05.937Z,16.60
2018-12-16T16:05:35.605Z,15.33
2018-12-16T16:08:03.919Z,19.00
2018-12-16T16:10:31.989Z,17.67
2018-12-16T16:13:00.255Z,16.30
2018-12-16T16:15:28.523Z,16.23
2018-12-16T16:17:56.564Z,16.73
2018-12-16T16:20:24.556Z,16.63
2018-12-16T16:22:53.390Z,15.80
2018-12-16T16:25:21.284Z,16.40
2018-12-16T16:27:49.149Z,18.00
2018-12-16T16:30:17.039Z,16.27
2018-12-16T16:32:44.881Z,18.10
2018-12-16T16:35:12.771Z,17.03
2018-12-16T16:37:40.639Z,18.00
2018-12-16T16:40:08.844Z,17.33
2018-12-16T16:42:36.920Z,16.93
2018-12-16T16:45:05.560Z,17.00
2018-12-16T16:47:33.524Z,18.10
2018-12-16T16:50:01.718Z,18.00
2018-12-16T16:52:30.005Z,17.93
2018-12-16T16:54:58.095Z,16.13
2018-12-16T16:57:26.061Z,15.33
2018-12-16T16:59:54.035Z,18.03
2018-12-16T17:02:22.101Z,15.00
2018-12-16T17:04:50.158Z,17.67
2018-12-16T17:07:18.349Z,17.30
2018-12-16T17:09:46.288Z,18.77
2018-12-16T17:12:14.383Z,17.27
2018-12-16T17:14:42.296Z,16.03
2018-12-16T17:17:10.187Z,15.67
2018-12-16T17:19:38.102Z,17.30
2018-12-16T17:22:06.262Z,16.37
2018-12-16T17:24:34.351Z,16.90
2018-12-16T17:27:02.328Z,15.87
2018-12-16T17:29:30.597Z,18.07
2018-12-16T17:31:58.730Z,16.67
2018-12-16T17:34:26.671Z,16.30
2018-12-16T17:36:54.691Z,22.07
2018-12-16T17:39:22.760Z,19.43
2018-12-16T17:41:50.817Z,16.70
2018-12-16T17:44:18.958Z,16.73
2018-12-16T17:46:47.351Z,15.60
2018-12-16T17:49:15.576Z,15.20
2018-12-16T17:51:43.905Z,16.43
2018-12-16T17:54:11.922Z,16.20
2018-12-16T17:56:39.770Z,14.90
2018-12-16T17:59:07.609Z,14.30
2018-12-16T18:01:35.468Z,17.20
2018-12-16T18:04:05.521Z,14.23
2018-12-16T18:06:33.797Z,16.60
2018-12-16T18:09:01.638Z,18.03
2018-12-16T18:11:29.581Z,14.97
2018-12-16T18:13:57.445Z,16.27
2018-12-16T18:16:25.310Z,17.20
2018-12-16T18:18:53.178Z,16.70
2018-12-16T18:21:21.166Z,16.30
2018-12-16T18:23:49.132Z,16.47
2018-12-16T18:26:16.998Z,16.07
2018-12-16T18:28:44.863Z,15.57
2018-12-16T18:31:13.076Z,16.67
2018-12-16T18:33:40.908Z,17.67
2018-12-16T18:36:09.441Z,16.20
2018-12-16T18:38:37.494Z,15.83
2018-12-16T18:41:05.416Z,16.37
2018-12-16T18:43:33.534Z,15.37
2018-12-16T18:46:01.502Z,17.80
2018-12-16T18:48:29.779Z,16.80
2018-12-16T18:50:57.850Z,17.47
2018-12-16T18:53:25.893Z,16.00
2018-12-16T18:55:53.859Z,17.40
2018-12-16T18:58:21.703Z,16.87
2018-12-16T19:00:49.726Z,17.13
2018-12-16T19:03:17.911Z,15.00
2018-12-16T19:05:46.174Z,16.30
2018-12-16T19:08:14.246Z,16.30
2018-12-16T19:10:42.317Z,16.10
2018-12-16T19:13:10.370Z,16.20
2018-12-16T19:15:38.333Z,18.50
2018-12-16T19:18:06.298Z,17.07
2018-12-16T19:20:34.262Z,16.17
2018-12-16T19:23:02.455Z,17.97
2018-12-16T19:25:30.322Z,17.17
2018-12-16T19:27:58.816Z,15.70
2018-12-16T19:30:26.653Z,18.00
2018-12-16T19:32:54.620Z,17.60
2018-12-16T19:35:22.613Z,17.77
2018-12-16T19:37:51.698Z,17.27
2018-12-16T19:40:19.964Z,17.27
2018-12-16T19:42:47.925Z,18.87
2018-12-16T19:45:16.339Z,17.30
2018-12-16T19:47:49.529Z,16.03
2018-12-16T19:50:16.353Z,17.40
2018-12-16T19:52:44.567Z,16.57
2018-12-16T19:55:12.681Z,17.07
2018-12-16T19:57:40.647Z,17.47
2018-12-16T20:00:08.812Z,17.30
2018-12-16T20:02:36.903Z,17.43
2018-12-16T20:05:05.904Z,18.20
2018-12-16T20:07:33.809Z,17.90
2018-12-16T20:10:01.968Z,17.67
2018-12-16T20:12:29.920Z,17.77
2018-12-16T20:14:57.757Z,18.00
2018-12-16T20:17:25.873Z,18.33
2018-12-16T20:19:54.037Z,18.67
2018-12-16T20:22:21.978Z,18.50
2018-12-16T20:24:50.170Z,20.23
2018-12-16T20:27:18.263Z,21.10
2018-12-16T20:29:46.332Z,18.77
2018-12-16T20:32:14.390Z,19.43
2018-12-16T20:34:42.330Z,20.60
2018-12-16T20:37:10.520Z,21.17
2018-12-16T20:39:38.616Z,20.93
2018-12-16T20:42:06.627Z,20.93
2018-12-16T20:44:34.617Z,21.07
2018-12-16T20:47:02.807Z,20.60
2018-12-16T20:49:30.748Z,19.40
2018-12-16T20:51:58.739Z,20.73
2018-12-16T20:54:27.028Z,20.27
2018-12-16T20:56:55.116Z,20.17
2018-12-16T20:59:23.198Z,20.73
2018-12-16T21:01:51.103Z,22.10
2018-12-16T21:04:18.967Z,21.50
2018-12-16T21:06:46.832Z,23.10
2018-12-16T21:09:14.697Z,20.23
2018-12-16T21:11:48.048Z,20.80
2018-12-16T21:20:15.614Z,23.37
2018-12-16T21:22:43.677Z,23.43
2018-12-16T21:25:11.688Z,23.10
2018-12-16T21:27:39.758Z,23.90
2018-12-16T21:30:09.336Z,24.20
2018-12-16T21:32:37.188Z,22.10
2018-12-16T21:35:05.919Z,23.47
2018-12-16T21:37:33.794Z,22.57
2018-12-16T21:40:01.738Z,24.03
2018-12-16T21:42:29.824Z,22.70
2018-12-16T21:44:57.866Z,23.97
2018-12-16T21:47:25.831Z,22.77
2018-12-16T21:49:53.822Z,23.03
2018-12-16T21:52:21.763Z,23.50
2018-12-16T21:54:49.630Z,23.57
2018-12-16T21:57:17.494Z,24.63
2018-12-16T21:59:45.722Z,22.70
2018-12-16T22:02:13.450Z,24.07
2018-12-16T22:04:41.647Z,23.00
2018-12-16T22:07:09.355Z,23.93
2018-12-16T22:09:37.381Z,24.23
2018-12-16T22:12:05.087Z,25.00
2018-12-16T22:14:32.952Z,22.87
2018-12-16T22:17:01.168Z,23.30
2018-12-16T22:19:29.237Z,25.00
2018-12-16T22:21:57.174Z,24.30
2018-12-16T22:24:25.365Z,23.90
2018-12-16T22:26:53.331Z,24.70
2018-12-16T22:29:21.321Z,23.10
2018-12-16T22:31:49.586Z,23.17
2018-12-16T22:34:17.652Z,23.57
2018-12-16T22:36:45.753Z,24.17
2018-12-16T22:39:14.267Z,23.83
2018-12-16T22:41:42.223Z,24.00
2018-12-16T22:44:10.114Z,24.80
2018-12-16T22:46:38.551Z,24.60
2018-12-16T22:49:06.570Z,23.90
2018-12-16T22:51:34.535Z,24.37
2018-12-16T22:54:02.401Z,24.20
2018-12-16T22:56:30.392Z,25.50
2018-12-16T22:58:58.357Z,24.97
2018-12-16T23:01:26.423Z,23.20
2018-12-16T23:03:55.865Z,25.13
2018-12-16T23:06:24.004Z,25.00
2018-12-16T23:08:51.869Z,23.93
2018-12-16T23:11:19.735Z,23.77
2018-12-16T23:13:47.949Z,25.23
2018-12-16T23:16:15.991Z,25.83
2018-12-16T23:18:44.382Z,25.33
2018-12-16T23:21:12.222Z,24.20
2018-12-16T23:23:40.487Z,26.07
2018-12-16T23:26:08.477Z,24.47
2018-12-16T23:28:36.644Z,25.23
2018-12-16T23:31:04.559Z,25.57
2018-12-16T23:33:32.723Z,25.37
2018-12-16T23:36:00.440Z,24.37
2018-12-16T23:38:28.430Z,24.20
2018-12-16T23:40:56.532Z,24.27
2018-12-16T23:43:24.586Z,24.27
2018-12-16T23:45:52.527Z,24.10
2018-12-16T23:48:20.643Z,25.47
2018-12-16T23:50:49.283Z,25.93
2018-12-16T23:53:17.274Z,24.40
2018-12-16T23:55:45.366Z,23.97
2018-12-16T23:58:13.355Z,25.50
